createdAt,value
2023-04-11T00:01:00.848Z,57.35
2023-04-11T00:03:29.267Z,59.28
2023-04-11T00:05:57.458Z,65.90
2023-04-11T00:08:25.606Z,66.81
2023-04-11T00:10:53.511Z,63.60
2023-04-11T00:13:21.492Z,61.29
2023-04-11T00:15:53.654Z,57.09
2023-04-11T00:18:23.101Z,57.08
2023-04-11T00:20:51.076Z,58.92
2023-04-11T00:23:19.091Z,64.81
2023-04-11T00:25:47.834Z,67.08
2023-04-11T00:28:15.912Z,62.83
2023-04-11T00:30:44.000Z,60.50
2023-04-11T00:33:11.990Z,57.11
2023-04-11T00:35:40.922Z,56.42
2023-04-11T00:38:08.917Z,58.54
2023-04-11T00:40:36.972Z,63.36
2023-04-11T00:43:04.935Z,64.53
2023-04-11T00:45:33.019Z,63.88
2023-04-11T00:48:01.346Z,61.79
2023-04-11T00:50:29.453Z,58.21
2023-04-11T00:52:58.162Z,58.92
2023-04-11T00:55:26.491Z,63.25
2023-04-11T00:57:55.633Z,64.48
2023-04-11T01:00:24.668Z,61.11
2023-04-11T01:02:52.796Z,57.86
2023-04-11T01:05:22.463Z,57.78
2023-04-11T01:07:52.437Z,60.54
2023-04-11T01:10:21.237Z,66.90
2023-04-11T01:12:50.052Z,67.30
2023-04-11T01:15:18.695Z,62.56
2023-04-11T01:17:48.298Z,59.63
2023-04-11T01:20:16.582Z,56.52
2023-04-11T01:22:45.775Z,55.36
2023-04-11T01:25:16.115Z,57.71
2023-04-11T01:27:45.014Z,62.81
2023-04-11T01:30:13.188Z,65.83
2023-04-11T01:32:41.198Z,63.33
2023-04-11T01:35:12.473Z,60.15
2023-04-11T01:37:40.677Z,57.21
2023-04-11T01:40:09.634Z,58.11
2023-04-11T01:42:38.596Z,61.05
2023-04-11T01:45:08.230Z,66.61
2023-04-11T01:47:36.650Z,66.53
2023-04-11T01:50:05.781Z,62.69
2023-04-11T01:52:33.838Z,60.26
2023-04-11T01:55:02.269Z,58.06
2023-04-11T01:57:31.153Z,58.31
2023-04-11T01:59:59.464Z,60.27
2023-04-11T02:02:27.544Z,66.33
2023-04-11T02:04:55.620Z,67.07
2023-04-11T02:07:23.691Z,61.73
2023-04-11T02:09:51.660Z,57.54
2023-04-11T02:12:19.572Z,56.82
2023-04-11T02:14:47.586Z,58.51
2023-04-11T02:17:18.573Z,64.21
2023-04-11T02:19:46.637Z,66.48
2023-04-11T02:22:16.295Z,62.43
2023-04-11T02:24:44.327Z,58.14
2023-04-11T02:27:12.570Z,57.80
2023-04-11T02:29:40.580Z,59.09
2023-04-11T02:32:09.868Z,65.54
2023-04-11T02:34:38.063Z,67.41
2023-04-11T02:37:06.480Z,64.42
2023-04-11T02:39:35.403Z,61.95
2023-04-11T02:42:03.675Z,60.15
2023-04-11T02:44:31.639Z,56.24
2023-04-11T02:47:00.377Z,55.92
2023-04-11T02:49:28.914Z,57.13
2023-04-11T02:51:57.645Z,59.14
2023-04-11T02:54:25.734Z,65.47
2023-04-11T02:56:56.025Z,66.96
2023-04-11T02:59:24.334Z,63.06
2023-04-11T03:02:00.762Z,59.58
2023-04-11T03:04:29.117Z,55.73
2023-04-11T03:07:04.452Z,58.41
2023-04-11T03:09:32.578Z,58.33
2023-04-11T03:12:01.581Z,63.95
2023-04-11T03:14:30.034Z,66.57
2023-04-11T03:16:58.040Z,62.42
2023-04-11T03:19:26.673Z,57.92
2023-04-11T03:21:55.539Z,56.25
2023-04-11T03:24:23.651Z,57.82
2023-04-11T03:26:52.449Z,63.35
2023-04-11T03:29:20.934Z,66.74
2023-04-11T03:32:09.194Z,62.70
2023-04-11T03:34:39.540Z,59.71
2023-04-11T03:37:08.658Z,56.09
2023-04-11T03:39:37.878Z,56.08
2023-04-11T03:42:06.043Z,57.38
2023-04-11T03:44:34.133Z,58.73
2023-04-11T03:47:02.813Z,64.41
2023-04-11T03:49:36.757Z,67.28
2023-04-11T03:52:07.636Z,64.10
2023-04-11T03:54:40.545Z,61.43
2023-04-11T03:57:10.738Z,57.42
2023-04-11T03:59:38.648Z,55.31
2023-04-11T04:02:12.016Z,58.31
2023-04-11T04:04:47.320Z,63.99
2023-04-11T04:07:24.825Z,65.87
2023-04-11T04:09:55.418Z,62.54
2023-04-11T04:12:23.794Z,61.79
2023-04-11T04:15:05.734Z,57.81
2023-04-11T04:17:33.664Z,58.82
2023-04-11T04:20:07.183Z,64.92
2023-04-11T04:22:37.906Z,67.93
2023-04-11T04:25:07.162Z,65.81
2023-04-11T04:27:36.472Z,62.96
2023-04-11T04:30:04.958Z,59.80
2023-04-11T04:32:59.257Z,55.94
2023-04-11T04:35:28.298Z,57.35
2023-04-11T04:37:57.308Z,59.90
2023-04-11T04:40:44.318Z,66.55
2023-04-11T04:43:18.563Z,65.74
2023-04-11T04:45:51.446Z,61.55
2023-04-11T04:48:25.717Z,57.76
2023-04-11T04:50:53.825Z,56.60
2023-04-11T04:53:22.081Z,58.13
2023-04-11T04:55:54.383Z,64.36
2023-04-11T04:58:22.804Z,65.63
2023-04-11T05:00:56.140Z,61.91
2023-04-11T05:03:29.105Z,57.52
2023-04-11T05:05:59.716Z,56.62
2023-04-11T05:08:28.133Z,59.03
2023-04-11T05:10:58.930Z,65.30
2023-04-11T05:13:27.218Z,66.20
2023-04-11T05:15:55.277Z,61.46
2023-04-11T05:18:26.719Z,56.68
2023-04-11T05:20:54.641Z,57.41
2023-04-11T05:23:25.278Z,60.52
2023-04-11T05:25:54.008Z,66.60
2023-04-11T05:28:22.113Z,67.81
2023-04-11T05:30:50.687Z,64.95
2023-04-11T05:33:18.794Z,62.67
2023-04-11T05:35:47.920Z,61.29
2023-04-11T05:38:16.015Z,58.79
2023-04-11T05:40:43.985Z,58.10
2023-04-11T05:43:14.932Z,60.36
2023-04-11T05:45:47.714Z,66.50
2023-04-11T05:48:19.855Z,67.34
2023-04-11T05:50:50.578Z,64.72
2023-04-11T05:53:19.524Z,60.82
2023-04-11T05:55:47.471Z,57.21
2023-04-11T05:58:16.248Z,57.50
2023-04-11T06:00:46.139Z,61.15
2023-04-11T06:03:14.262Z,64.67
2023-04-11T06:05:42.378Z,64.57
2023-04-11T06:08:11.714Z,61.53
2023-04-11T06:10:39.622Z,57.84
2023-04-11T06:13:07.539Z,57.23
2023-04-11T06:15:35.592Z,60.60
2023-04-11T06:18:03.801Z,64.25
2023-04-11T06:20:31.759Z,65.00
2023-04-11T06:23:01.585Z,62.02
2023-04-11T06:25:29.884Z,57.94
2023-04-11T06:27:58.011Z,57.86
2023-04-11T06:30:26.260Z,59.27
2023-04-11T06:32:54.283Z,64.17
2023-04-11T06:35:25.090Z,63.13
2023-04-11T06:37:53.119Z,60.61
2023-04-11T06:40:21.260Z,56.01
2023-04-11T06:42:49.263Z,56.70
2023-04-11T06:45:17.283Z,59.28
2023-04-11T06:47:45.341Z,60.93
2023-04-11T06:50:13.497Z,63.31
2023-04-11T06:52:41.517Z,63.03
2023-04-11T06:55:10.340Z,58.69
2023-04-11T06:57:38.262Z,58.00
2023-04-11T07:00:08.931Z,59.05
2023-04-11T07:02:37.086Z,59.49
2023-04-11T07:05:06.259Z,63.16
2023-04-11T07:07:34.229Z,63.60
2023-04-11T07:10:02.292Z,57.96
2023-04-11T07:12:30.637Z,55.87
2023-04-11T07:14:58.672Z,57.34
2023-04-11T07:17:26.727Z,60.44
2023-04-11T07:19:54.822Z,63.79
2023-04-11T07:22:23.923Z,63.09
2023-04-11T07:24:57.588Z,57.63
2023-04-11T07:27:26.724Z,56.12
2023-04-11T07:29:54.720Z,58.06
2023-04-11T07:32:22.834Z,59.78
2023-04-11T07:34:50.966Z,64.10
2023-04-11T07:37:18.915Z,64.44
2023-04-11T07:39:46.915Z,58.16
2023-04-11T07:42:14.795Z,56.21
2023-04-11T07:44:42.739Z,57.85
2023-04-11T07:47:10.805Z,58.66
2023-04-11T07:49:38.927Z,61.57
2023-04-11T07:52:06.873Z,64.51
2023-04-11T07:54:34.918Z,63.67
2023-04-11T07:57:03.113Z,57.79
2023-04-11T07:59:31.050Z,56.08
2023-04-11T08:02:04.936Z,56.12
2023-04-11T08:05:31.033Z,59.29
2023-04-11T08:08:59.715Z,59.26
2023-04-11T08:11:28.330Z,63.99
2023-04-11T08:13:56.431Z,60.88
2023-04-11T08:16:24.901Z,55.59
2023-04-11T08:18:53.033Z,54.86
2023-04-11T08:21:23.694Z,56.66
2023-04-11T08:23:51.651Z,58.50
2023-04-11T08:26:20.236Z,59.61
2023-04-11T08:28:48.277Z,60.17
2023-04-11T08:31:16.245Z,62.85
2023-04-11T08:33:44.192Z,62.52
2023-04-11T08:36:12.644Z,56.36
2023-04-11T08:38:40.938Z,54.81
2023-04-11T08:41:08.926Z,56.92
2023-04-11T08:43:40.018Z,56.48
2023-04-11T08:46:08.560Z,56.28
2023-04-11T08:48:36.847Z,59.10
2023-04-11T08:51:06.142Z,59.70
2023-04-11T08:53:37.718Z,58.10
2023-04-11T08:56:06.567Z,58.15
2023-04-11T08:58:34.594Z,60.52
2023-04-11T09:01:25.401Z,61.33
2023-04-11T09:04:54.281Z,60.92
2023-04-11T09:08:11.825Z,59.64
2023-04-11T09:10:55.635Z,59.73
2023-04-11T09:13:28.551Z,59.45
2023-04-11T09:16:09.676Z,58.65
2023-04-11T09:18:47.424Z,58.22
2023-04-11T09:21:17.230Z,59.12
2023-04-11T09:23:45.190Z,58.84
2023-04-11T09:26:25.060Z,57.65
2023-04-11T09:28:53.922Z,57.61
2023-04-11T09:31:41.430Z,57.78
2023-04-11T09:34:09.794Z,56.55
2023-04-11T09:36:39.634Z,55.65
2023-04-11T09:39:20.515Z,54.47
2023-04-11T09:41:48.685Z,54.88
2023-04-11T09:44:16.660Z,54.32
2023-04-11T09:46:58.877Z,53.29
2023-04-11T09:49:27.996Z,54.32
2023-04-11T09:51:55.984Z,53.71
2023-04-11T09:54:32.152Z,53.34
2023-04-11T09:57:00.336Z,53.76
2023-04-11T09:59:29.948Z,53.24
2023-04-11T10:01:58.905Z,52.83
2023-04-11T10:04:28.207Z,52.40
2023-04-11T10:07:17.254Z,52.99
2023-04-11T10:09:46.211Z,52.57
2023-04-11T10:12:30.753Z,53.16
2023-04-11T10:15:05.921Z,53.95
2023-04-11T10:17:34.137Z,51.37
2023-04-11T10:20:02.143Z,49.53
2023-04-11T10:23:00.126Z,50.38
2023-04-11T10:25:28.899Z,51.97
2023-04-11T10:28:01.602Z,53.03
2023-04-11T10:30:41.765Z,52.71
2023-04-11T10:33:11.834Z,52.07
2023-04-11T10:36:12.557Z,49.64
2023-04-11T10:38:49.659Z,48.22
2023-04-11T10:41:25.117Z,46.85
2023-04-11T10:44:13.762Z,47.31
2023-04-11T10:46:46.962Z,47.09
2023-04-11T10:49:23.187Z,47.60
2023-04-11T10:51:52.136Z,46.39
2023-04-11T10:54:26.918Z,44.31
2023-04-11T10:56:55.728Z,43.86
2023-04-11T10:59:32.496Z,44.55
2023-04-11T11:02:02.098Z,44.57
2023-04-11T11:04:37.390Z,45.04
2023-04-11T11:07:07.721Z,45.88
2023-04-11T11:09:36.425Z,44.32
2023-04-11T11:12:20.496Z,45.42
2023-04-11T11:14:48.502Z,45.01
2023-04-11T11:17:17.416Z,43.24
2023-04-11T11:19:47.091Z,43.98
2023-04-11T11:22:25.749Z,44.67
2023-04-11T11:24:53.964Z,43.40
2023-04-11T11:27:24.150Z,43.89
2023-04-11T11:29:53.361Z,44.58
2023-04-11T11:32:28.934Z,43.55
2023-04-11T11:34:57.827Z,42.46
2023-04-11T11:37:26.254Z,41.48
2023-04-11T11:39:54.388Z,40.46
2023-04-11T11:42:22.411Z,41.86
2023-04-11T11:44:50.504Z,39.24
2023-04-11T11:47:18.603Z,39.30
2023-04-11T11:49:47.540Z,39.79
2023-04-11T11:52:39.791Z,40.43
2023-04-11T11:55:29.201Z,41.45
2023-04-11T11:58:02.269Z,40.94
2023-04-11T12:00:35.023Z,40.95
2023-04-11T12:03:03.465Z,40.96
2023-04-11T12:05:33.640Z,41.02
2023-04-11T12:08:04.398Z,42.16
2023-04-11T12:10:41.086Z,41.86
2023-04-11T12:13:16.720Z,42.27
2023-04-11T12:15:48.884Z,40.95
2023-04-11T12:18:20.572Z,40.78
2023-04-11T12:20:49.298Z,40.96
2023-04-11T12:23:18.528Z,39.51
2023-04-11T12:25:47.474Z,37.83
2023-04-11T12:28:16.357Z,37.24
2023-04-11T12:30:44.298Z,37.57
2023-04-11T12:33:12.486Z,37.76
2023-04-11T12:35:40.391Z,38.01
2023-04-11T12:38:08.949Z,38.57
2023-04-11T12:40:37.765Z,37.92
2023-04-11T12:43:05.904Z,38.73
2023-04-11T12:45:33.819Z,38.83
2023-04-11T12:48:02.028Z,38.75
2023-04-11T12:50:29.950Z,39.95
2023-04-11T12:52:57.928Z,40.06
2023-04-11T12:55:26.084Z,41.23
2023-04-11T12:57:54.214Z,41.71
2023-04-11T13:00:22.219Z,42.25
2023-04-11T13:02:50.442Z,40.26
2023-04-11T13:05:19.988Z,38.34
2023-04-11T13:07:47.962Z,37.74
2023-04-11T13:10:16.546Z,37.98
2023-04-11T13:12:45.614Z,38.61
2023-04-11T13:15:17.093Z,38.37
2023-04-11T13:17:49.328Z,39.29
2023-04-11T13:20:17.576Z,38.76
2023-04-11T13:22:46.232Z,39.12
2023-04-11T13:25:14.142Z,39.00
2023-04-11T13:27:42.465Z,39.63
2023-04-11T13:30:11.455Z,40.28
2023-04-11T13:32:39.576Z,40.14
2023-04-11T13:35:08.348Z,40.00
2023-04-11T13:37:36.303Z,40.36
2023-04-11T13:40:07.945Z,40.59
2023-04-11T13:42:35.948Z,40.57
2023-04-11T13:45:04.665Z,40.15
2023-04-11T13:47:34.856Z,40.34
2023-04-11T13:50:06.270Z,40.18
2023-04-11T13:52:34.235Z,40.69
2023-04-11T13:55:02.192Z,40.64
2023-04-11T13:57:30.139Z,40.30
2023-04-11T13:59:58.342Z,40.07
2023-04-11T14:02:26.892Z,40.87
2023-04-11T14:04:54.926Z,40.79
2023-04-11T14:07:22.876Z,41.17
2023-04-11T14:09:50.728Z,40.56
2023-04-11T14:12:18.818Z,39.60
2023-04-11T14:14:46.833Z,39.48
2023-04-11T14:17:14.816Z,39.90
2023-04-11T14:19:43.131Z,38.92
2023-04-11T14:22:11.190Z,39.07
2023-04-11T14:24:39.589Z,39.39
2023-04-11T14:27:08.593Z,40.08
2023-04-11T14:29:37.675Z,40.71
2023-04-11T14:32:07.421Z,40.92
2023-04-11T14:34:35.422Z,41.37
2023-04-11T14:37:03.620Z,41.88
2023-04-11T14:39:33.037Z,42.29
2023-04-11T14:42:04.046Z,42.53
2023-04-11T14:44:32.002Z,42.69
2023-04-11T14:46:59.908Z,42.71
2023-04-11T14:49:28.285Z,42.98
2023-04-11T14:51:56.367Z,43.70
2023-04-11T14:54:24.712Z,44.28
2023-04-11T14:56:53.008Z,44.64
2023-04-11T14:59:21.185Z,44.84
2023-04-11T15:01:49.375Z,44.93
2023-04-11T15:04:18.653Z,44.93
2023-04-11T15:06:47.615Z,45.51
2023-04-11T15:09:20.417Z,47.42
2023-04-11T15:11:51.761Z,48.18
2023-04-11T15:14:19.905Z,48.68
2023-04-11T15:16:49.973Z,49.10
2023-04-11T15:19:17.924Z,49.50
2023-04-11T15:21:49.327Z,49.51
2023-04-11T15:24:18.350Z,50.01
2023-04-11T15:26:46.749Z,50.42
2023-04-11T15:29:20.745Z,50.70
2023-04-11T15:32:08.526Z,51.16
2023-04-11T15:35:02.595Z,51.96
2023-04-11T15:37:31.940Z,52.71
2023-04-11T15:40:52.558Z,52.86
2023-04-11T15:46:35.608Z,54.18
2023-04-11T15:49:04.389Z,54.54
2023-04-11T15:54:18.295Z,56.17
2023-04-11T15:57:02.217Z,57.38
2023-04-11T15:59:33.649Z,58.10
2023-04-11T16:02:08.758Z,58.83
2023-04-11T16:04:43.952Z,59.11
2023-04-11T16:07:14.154Z,59.55
2023-04-11T16:09:42.730Z,59.61
2023-04-11T16:12:11.474Z,60.29
2023-04-11T16:14:39.457Z,60.73
2023-04-11T16:17:07.431Z,61.17
2023-04-11T16:19:41.509Z,61.34
2023-04-11T16:22:10.846Z,62.27
2023-04-11T16:24:46.778Z,61.24
2023-04-11T16:27:15.132Z,57.80
2023-04-11T16:29:50.161Z,56.69
2023-04-11T16:32:18.391Z,58.21
2023-04-11T16:34:46.361Z,59.38
2023-04-11T16:37:15.043Z,60.64
2023-04-11T16:39:42.961Z,61.51
2023-04-11T16:42:17.195Z,62.80
2023-04-11T16:44:45.474Z,62.32
2023-04-11T16:47:13.974Z,55.84
2023-04-11T16:49:42.017Z,57.00
2023-04-11T16:52:15.499Z,58.13
2023-04-11T16:54:44.316Z,60.52
2023-04-11T16:57:12.332Z,61.57
2023-04-11T16:59:41.455Z,63.63
2023-04-11T17:02:09.408Z,60.88
2023-04-11T17:04:38.674Z,56.79
2023-04-11T17:07:09.713Z,55.87
2023-04-11T17:09:39.484Z,58.53
2023-04-11T17:12:12.797Z,61.01
2023-04-11T17:14:41.329Z,62.60
2023-04-11T17:17:09.703Z,62.65
2023-04-11T17:19:44.241Z,57.22
2023-04-11T17:22:18.064Z,57.33
2023-04-11T17:24:51.752Z,60.03
2023-04-11T17:27:43.583Z,61.98
2023-04-11T17:30:17.639Z,64.65
2023-04-11T17:32:53.665Z,61.64
2023-04-11T17:35:21.667Z,56.02
2023-04-11T17:37:50.780Z,57.61
2023-04-11T17:40:18.895Z,60.47
2023-04-11T17:42:47.086Z,64.89
2023-04-11T17:45:18.360Z,62.22
2023-04-11T17:48:11.917Z,59.44
2023-04-11T17:50:40.339Z,62.34
2023-04-11T17:53:08.443Z,64.40
2023-04-11T17:55:37.275Z,61.57
2023-04-11T17:58:10.843Z,58.99
2023-04-11T18:00:52.559Z,61.59
2023-04-11T18:03:45.279Z,65.32
2023-04-11T18:06:13.668Z,62.18
2023-04-11T18:09:25.213Z,61.55
2023-04-11T18:11:53.209Z,60.14
2023-04-11T18:14:21.662Z,61.32
2023-04-11T18:16:50.028Z,65.05
2023-04-11T18:19:20.138Z,64.14
2023-04-11T18:21:50.647Z,62.45
2023-04-11T18:24:18.604Z,61.22
2023-04-11T18:26:47.470Z,61.23
2023-04-11T18:29:20.465Z,60.92
2023-04-11T18:31:48.435Z,61.50
2023-04-11T18:34:16.816Z,61.79
2023-04-11T18:36:47.117Z,61.38
2023-04-11T18:39:17.636Z,61.01
2023-04-11T18:41:47.082Z,59.76
2023-04-11T18:44:16.005Z,59.02
2023-04-11T18:47:20.790Z,63.55
2023-04-11T18:49:49.242Z,64.77
2023-04-11T18:52:17.546Z,61.57
2023-04-11T18:54:46.053Z,59.38
2023-04-11T18:57:19.751Z,60.26
2023-04-11T18:59:50.046Z,65.35
2023-04-11T19:02:19.709Z,64.20
2023-04-11T19:04:55.614Z,62.16
2023-04-11T19:07:24.337Z,62.10
2023-04-11T19:09:53.154Z,61.13
2023-04-11T19:12:27.782Z,60.89
2023-04-11T19:14:56.248Z,60.94
2023-04-11T19:17:24.375Z,60.96
2023-04-11T19:19:52.898Z,61.01
2023-04-11T19:22:28.007Z,59.34
2023-04-11T19:25:03.447Z,63.21
2023-04-11T19:27:31.815Z,64.07
2023-04-11T19:30:11.363Z,60.80
2023-04-11T19:32:47.751Z,58.91
2023-04-11T19:35:17.133Z,64.02
2023-04-11T19:37:45.466Z,65.49
2023-04-11T19:40:13.985Z,63.62
2023-04-11T19:42:43.302Z,61.85
2023-04-11T19:45:12.859Z,60.45
2023-04-11T19:47:41.836Z,58.06
2023-04-11T19:50:13.244Z,60.20
2023-04-11T19:52:42.741Z,65.03
2023-04-11T19:55:12.421Z,64.78
2023-04-11T19:57:46.443Z,62.50
2023-04-11T20:00:16.399Z,61.26
2023-04-11T20:02:46.622Z,60.35
2023-04-11T20:05:24.768Z,59.00
2023-04-11T20:07:59.808Z,60.50
2023-04-11T20:10:34.321Z,65.32
2023-04-11T20:13:09.163Z,64.68
2023-04-11T20:15:37.284Z,62.13
2023-04-11T20:18:05.791Z,61.27
2023-04-11T20:20:33.966Z,60.62
2023-04-11T20:23:05.013Z,58.75
2023-04-11T20:25:34.459Z,60.40
2023-04-11T20:28:02.742Z,65.50
2023-04-11T20:30:30.895Z,64.88
2023-04-11T20:32:59.081Z,62.61
2023-04-11T20:35:32.784Z,61.55
2023-04-11T20:38:00.815Z,61.20
2023-04-11T20:40:28.809Z,59.64
2023-04-11T20:42:57.413Z,60.36
2023-04-11T20:45:27.933Z,64.91
2023-04-11T20:47:57.724Z,63.89
2023-04-11T20:50:25.844Z,62.56
2023-04-11T20:52:54.169Z,60.87
2023-04-11T20:55:27.742Z,60.45
2023-04-11T20:57:55.940Z,60.30
2023-04-11T21:00:24.847Z,60.16
2023-04-11T21:02:53.741Z,60.07
2023-04-11T21:05:25.731Z,58.49
2023-04-11T21:07:54.872Z,62.14
2023-04-11T21:10:22.898Z,66.59
2023-04-11T21:12:59.933Z,64.28
2023-04-11T21:15:36.106Z,62.81
2023-04-11T21:18:09.694Z,62.57
2023-04-11T21:20:57.246Z,62.82
2023-04-11T21:23:25.429Z,60.43
2023-04-11T21:25:58.537Z,60.05
2023-04-11T21:28:26.537Z,60.97
2023-04-11T21:30:54.518Z,61.52
2023-04-11T21:33:28.149Z,61.47
2023-04-11T21:35:56.621Z,62.48
2023-04-11T21:38:24.856Z,62.32
2023-04-11T21:40:52.818Z,62.86
2023-04-11T21:43:22.056Z,61.36
2023-04-11T21:45:50.049Z,61.25
2023-04-11T21:48:18.084Z,60.86
2023-04-11T21:50:46.173Z,61.05
2023-04-11T21:53:14.214Z,61.68
2023-04-11T21:55:46.750Z,61.73
2023-04-11T21:58:28.055Z,60.41
2023-04-11T22:01:11.155Z,58.91
2023-04-11T22:03:41.469Z,62.84
2023-04-11T22:06:11.178Z,64.76
2023-04-11T22:08:42.314Z,63.60
2023-04-11T22:11:10.386Z,61.85
2023-04-11T22:13:39.724Z,61.13
2023-04-11T22:16:08.068Z,61.63
2023-04-11T22:18:46.811Z,60.64
2023-04-11T22:21:19.551Z,61.76
2023-04-11T22:23:54.929Z,61.54
2023-04-11T22:26:35.146Z,59.67
2023-04-11T22:29:06.536Z,62.28
2023-04-11T22:31:35.069Z,65.04
2023-04-11T22:34:03.289Z,62.98
2023-04-11T22:36:35.908Z,62.01
2023-04-11T22:39:07.982Z,62.19
2023-04-11T22:41:38.708Z,59.96
2023-04-11T22:44:07.059Z,59.12
2023-04-11T22:46:38.779Z,60.39
2023-04-11T22:49:09.744Z,66.53
2023-04-11T22:51:41.112Z,66.31
2023-04-11T22:54:09.720Z,63.54
2023-04-11T22:56:37.608Z,62.07
2023-04-11T22:59:05.512Z,61.10
2023-04-11T23:01:33.529Z,59.23
2023-04-11T23:04:01.747Z,58.80
2023-04-11T23:06:29.834Z,61.38
2023-04-11T23:08:57.716Z,66.99
2023-04-11T23:11:25.786Z,64.58
2023-04-11T23:13:54.662Z,62.02
2023-04-11T23:16:22.593Z,60.63
2023-04-11T23:18:50.461Z,59.05
2023-04-11T23:21:18.376Z,60.97
2023-04-11T23:23:46.274Z,65.37
2023-04-11T23:26:18.956Z,63.98
2023-04-11T23:28:47.368Z,61.54
2023-04-11T23:31:16.048Z,61.26
2023-04-11T23:33:44.258Z,60.92
2023-04-11T23:36:12.965Z,59.66
2023-04-11T23:38:40.927Z,61.28
2023-04-11T23:41:08.933Z,64.64
2023-04-11T23:43:36.940Z,63.49
2023-04-11T23:46:05.309Z,61.47
2023-04-11T23:48:33.292Z,61.95
2023-04-11T23:51:07.339Z,59.79
2023-04-11T23:53:42.617Z,61.04
2023-04-11T23:56:19.652Z,63.61
2023-04-11T23:58:54.587Z,63.77
